Accueil
METAR-TAF:

METAR-TAF

Aéroports :

Aéroport de Londres-Heathrow

Londres-Heathrow, Angleterre

latitude: 51-29N, longitude: 000-27W, altitude: 24 m

Observation

Le bulletin a été fait il y a 18 minutes, à 23:20 UTC
Vent 2 kt de direction variable
Température 17°C
Humidité 63%
Pression 1026 hPa
Visibilité 10 km ou plus

METAR: EGLL 232320Z AUTO VRB02KT 9999 NCD 17/10 Q1026 NOSIG

Heure: 00:38 (23:38 UTC)

Prévision

Le bulletin a été fait il y a 46 minutes, à 22:52 UTC
Prévision valable du 24 à 00 UTC au 25 à 06 UTC
Vent 4 kt de nord
Visibilité 10 km ou plus
pas de nuages en-dessous de 1500 mètres et pas de cumulonimbus.

TAF: EGLL 232252Z 2400/2506 35004KT CAVOK

Observations et prévisions météorologiques de plus de 4000 aéroports (messages METAR et TAF).

Les stations disponibles sont représentées par des disques jaunes et rouges sur la carte.

Passer la souris dessus pour voir le nom de la station.

Cliquer dessus pour voir les observations et prévisions météorologiques.

Pour changer de carte: cliquez sur les boutons verts avec une croix noire pour zoomer, sur le bouton vert avec un tiret pour effectuer un zoom arrière, ou sur les flèches vertes pour les cartes adjacentes.


METAR-TAF: